sensor_id;sensor_type;location;lat;lon;timestamp;temperature;humidity
20773;DHT22;10546;50.674;4.616;2023-03-12T00:01:26;5.50;99.90
20773;DHT22;10546;50.674;4.616;2023-03-12T00:03:54;5.30;99.90
20773;DHT22;10546;50.674;4.616;2023-03-12T06:35:22;6.40;99.90
20773;DHT22;10546;50.674;4.616;2023-03-12T06:37:48;6.40;99.90
20773;DHT22;10546;50.674;4.616;2023-03-12T06:40:13;6.50;99.90
20773;DHT22;10546;50.674;4.616;2023-03-12T06:42:39;6.50;99.90
20773;DHT22;10546;50.674;4.616;2023-03-12T06:45:05;6.60;99.90
20773;DHT22;10546;50.674;4.616;2023-03-12T06:47:31;6.60;99.90
20773;DHT22;10546;50.674;4.616;2023-03-12T06:49:56;6.70;99.90
20773;DHT22;10546;50.674;4.616;2023-03-12T06:52:22;6.80;99.90
20773;DHT22;10546;50.674;4.616;2023-03-12T06:54:47;6.80;99.90
20773;DHT22;10546;50.674;4.616;2023-03-12T06:57:13;6.90;99.90
20773;DHT22;10546;50.674;4.616;2023-03-12T06:59:41;7.00;99.90
20773;DHT22;10546;50.674;4.616;2023-03-12T07:02:09;7.10;99.90
20773;DHT22;10546;50.674;4.616;2023-03-12T07:04:35;7.10;99.90
20773;DHT22;10546;50.674;4.616;2023-03-12T07:07:01;7.20;99.90
20773;DHT22;10546;50.674;4.616;2023-03-12T07:09:26;7.30;99.90
20773;DHT22;10546;50.674;4.616;2023-03-12T07:11:52;7.40;99.90
20773;DHT22;10546;50.674;4.616;2023-03-12T07:14:17;7.40;99.90
20773;DHT22;10546;50.674;4.616;2023-03-12T07:16:46;7.50;99.90
20773;DHT22;10546;50.674;4.616;2023-03-12T07:19:14;7.50;99.90
20773;DHT22;10546;50.674;4.616;2023-03-12T07:21:40;7.40;99.90
20773;DHT22;10546;50.674;4.616;2023-03-12T07:24:05;7.50;99.90
20773;DHT22;10546;50.674;4.616;2023-03-12T07:26:34;7.60;99.90
20773;DHT22;10546;50.674;4.616;2023-03-12T07:29:00;7.70;99.90
20773;DHT22;10546;50.674;4.616;2023-03-12T07:31:28;7.70;99.90
20773;DHT22;10546;50.674;4.616;2023-03-12T07:33:54;7.80;99.90
20773;DHT22;10546;50.674;4.616;2023-03-12T07:36:19;7.90;99.90
20773;DHT22;10546;50.674;4.616;2023-03-12T07:38:45;7.90;99.90
20773;DHT22;10546;50.674;4.616;2023-03-12T07:41:11;8.10;99.90
20773;DHT22;10546;50.674;4.616;2023-03-12T07:43:36;7.90;99.90
20773;DHT22;10546;50.674;4.616;2023-03-12T07:46:02;8.00;99.90
20773;DHT22;10546;50.674;4.616;2023-03-12T07:48:27;8.00;99.90
20773;DHT22;10546;50.674;4.616;2023-03-12T07:50:53;8.00;99.90
20773;DHT22;10546;50.674;4.616;2023-03-12T07:53:18;8.20;99.90
20773;DHT22;10546;50.674;4.616;2023-03-12T07:55:45;8.20;99.90
20773;DHT22;10546;50.674;4.616;2023-03-12T07:58:11;8.20;99.90
20773;DHT22;10546;50.674;4.616;2023-03-12T08:00:38;8.20;99.90
20773;DHT22;10546;50.674;4.616;2023-03-12T08:03:04;8.30;99.90
20773;DHT22;10546;50.674;4.616;2023-03-12T08:05:30;8.30;99.90
20773;DHT22;10546;50.674;4.616;2023-03-12T08:07:56;8.50;99.90
20773;DHT22;10546;50.674;4.616;2023-03-12T08:10:22;8.30;99.90
20773;DHT22;10546;50.674;4.616;2023-03-12T08:12:48;8.40;99.90
20773;DHT22;10546;50.674;4.616;2023-03-12T08:15:14;8.50;99.90
20773;DHT22;10546;50.674;4.616;2023-03-12T08:17:40;8.50;99.90
20773;DHT22;10546;50.674;4.616;2023-03-12T08:20:06;8.60;99.90
20773;DHT22;10546;50.674;4.616;2023-03-12T08:22:39;8.70;99.90
20773;DHT22;10546;50.674;4.616;2023-03-12T08:25:05;8.70;99.90
20773;DHT22;10546;50.674;4.616;2023-03-12T08:27:32;8.70;99.90
20773;DHT22;10546;50.674;4.616;2023-03-12T08:29:58;8.70;99.90
20773;DHT22;10546;50.674;4.616;2023-03-12T08:32:24;8.70;99.90
20773;DHT22;10546;50.674;4.616;2023-03-12T08:34:50;8.80;99.90
20773;DHT22;10546;50.674;4.616;2023-03-12T08:37:15;8.80;99.90
20773;DHT22;10546;50.674;4.616;2023-03-12T08:39:41;8.90;99.90
20773;DHT22;10546;50.674;4.616;2023-03-12T08:42:09;8.90;99.90
20773;DHT22;10546;50.674;4.616;2023-03-12T08:44:35;9.00;99.90
20773;DHT22;10546;50.674;4.616;2023-03-12T08:47:00;9.00;99.90
20773;DHT22;10546;50.674;4.616;2023-03-12T08:49:26;9.00;99.90
20773;DHT22;10546;50.674;4.616;2023-03-12T08:51:52;9.00;99.90
20773;DHT22;10546;50.674;4.616;2023-03-12T08:54:18;9.00;99.90
20773;DHT22;10546;50.674;4.616;2023-03-12T08:56:44;9.00;99.90
20773;DHT22;10546;50.674;4.616;2023-03-12T08:59:11;9.10;99.90
20773;DHT22;10546;50.674;4.616;2023-03-12T09:01:38;9.10;99.90
20773;DHT22;10546;50.674;4.616;2023-03-12T09:04:04;9.10;99.90
20773;DHT22;10546;50.674;4.616;2023-03-12T09:06:31;9.20;99.90
20773;DHT22;10546;50.674;4.616;2023-03-12T09:08:58;9.20;99.90
20773;DHT22;10546;50.674;4.616;2023-03-12T09:11:30;9.30;99.90
20773;DHT22;10546;50.674;4.616;2023-03-12T09:13:56;9.40;99.90
20773;DHT22;10546;50.674;4.616;2023-03-12T09:16:22;9.50;99.90
20773;DHT22;10546;50.674;4.616;2023-03-12T09:18:47;9.50;99.90
20773;DHT22;10546;50.674;4.616;2023-03-12T09:21:13;9.40;99.90
20773;DHT22;10546;50.674;4.616;2023-03-12T09:23:39;9.40;99.90
20773;DHT22;10546;50.674;4.616;2023-03-12T09:26:08;9.40;99.90
20773;DHT22;10546;50.674;4.616;2023-03-12T09:28:34;9.50;99.90
20773;DHT22;10546;50.674;4.616;2023-03-12T09:31:01;9.60;99.90
20773;DHT22;10546;50.674;4.616;2023-03-12T09:33:27;9.70;99.90
20773;DHT22;10546;50.674;4.616;2023-03-12T09:35:59;9.70;99.90
20773;DHT22;10546;50.674;4.616;2023-03-12T09:38:29;9.70;99.90
20773;DHT22;10546;50.674;4.616;2023-03-12T09:41:00;9.90;99.90
20773;DHT22;10546;50.674;4.616;2023-03-12T09:43:40;9.80;99.90
20773;DHT22;10546;50.674;4.616;2023-03-12T09:46:36;9.80;99.90
20773;DHT22;10546;50.674;4.616;2023-03-12T09:49:09;9.90;99.90
20773;DHT22;10546;50.674;4.616;2023-03-12T09:51:46;10.00;99.90
20773;DHT22;10546;50.674;4.616;2023-03-12T09:54:43;10.30;99.90
20773;DHT22;10546;50.674;4.616;2023-03-12T09:57:17;10.40;99.90
20773;DHT22;10546;50.674;4.616;2023-03-12T09:59:44;10.40;99.90
20773;DHT22;10546;50.674;4.616;2023-03-12T10:04:57;10.60;99.90
20773;DHT22;10546;50.674;4.616;2023-03-12T10:07:33;10.80;99.90
20773;DHT22;10546;50.674;4.616;2023-03-12T10:15:45;11.30;99.90
20773;DHT22;10546;50.674;4.616;2023-03-12T10:18:20;11.40;99.90
20773;DHT22;10546;50.674;4.616;2023-03-12T10:21:09;11.50;99.90
20773;DHT22;10546;50.674;4.616;2023-03-12T10:24:01;11.30;99.90
20773;DHT22;10546;50.674;4.616;2023-03-12T10:26:36;11.30;99.90
20773;DHT22;10546;50.674;4.616;2023-03-12T10:29:25;11.30;99.90
20773;DHT22;10546;50.674;4.616;2023-03-12T10:32:07;11.40;99.90
20773;DHT22;10546;50.674;4.616;2023-03-12T10:37:23;12.00;99.90
20773;DHT22;10546;50.674;4.616;2023-03-12T10:39:52;12.20;99.90
20773;DHT22;10546;50.674;4.616;2023-03-12T10:42:23;12.20;99.90
20773;DHT22;10546;50.674;4.616;2023-03-12T10:47:43;12.20;99.90
20773;DHT22;10546;50.674;4.616;2023-03-12T10:52:46;12.10;99.90
20773;DHT22;10546;50.674;4.616;2023-03-12T10:55:27;12.20;99.90
20773;DHT22;10546;50.674;4.616;2023-03-12T10:57:54;12.20;99.90
20773;DHT22;10546;50.674;4.616;2023-03-12T11:00:26;12.40;99.90
20773;DHT22;10546;50.674;4.616;2023-03-12T11:03:05;12.60;99.90
20773;DHT22;10546;50.674;4.616;2023-03-12T11:05:51;12.80;99.90
20773;DHT22;10546;50.674;4.616;2023-03-12T11:08:30;12.90;99.90
20773;DHT22;10546;50.674;4.616;2023-03-12T11:10:58;13.00;99.90
20773;DHT22;10546;50.674;4.616;2023-03-12T11:16:00;13.10;99.90
20773;DHT22;10546;50.674;4.616;2023-03-12T11:18:32;13.10;99.90
20773;DHT22;10546;50.674;4.616;2023-03-12T11:23:38;13.10;99.90
20773;DHT22;10546;50.674;4.616;2023-03-12T11:26:35;13.00;99.90
20773;DHT22;10546;50.674;4.616;2023-03-12T11:29:02;13.00;99.90
20773;DHT22;10546;50.674;4.616;2023-03-12T11:31:42;13.00;99.90
20773;DHT22;10546;50.674;4.616;2023-03-12T11:34:30;13.00;99.90
20773;DHT22;10546;50.674;4.616;2023-03-12T11:39:50;13.20;99.90
20773;DHT22;10546;50.674;4.616;2023-03-12T12:06:35;14.20;99.90
20773;DHT22;10546;50.674;4.616;2023-03-12T12:09:15;14.20;99.90
20773;DHT22;10546;50.674;4.616;2023-03-12T12:11:51;13.90;99.90
20773;DHT22;10546;50.674;4.616;2023-03-12T12:22:33;12.90;99.90
20773;DHT22;10546;50.674;4.616;2023-03-12T12:25:11;13.20;99.90
20773;DHT22;10546;50.674;4.616;2023-03-12T12:30:48;13.20;99.90
20773;DHT22;10546;50.674;4.616;2023-03-12T12:35:48;13.30;99.90
20773;DHT22;10546;50.674;4.616;2023-03-12T12:38:24;13.20;99.90
20773;DHT22;10546;50.674;4.616;2023-03-12T12:41:17;13.00;99.90
20773;DHT22;10546;50.674;4.616;2023-03-12T12:43:48;12.90;99.90
20773;DHT22;10546;50.674;4.616;2023-03-12T12:46:27;13.10;99.90
20773;DHT22;10546;50.674;4.616;2023-03-12T12:49:18;13.30;99.90
20773;DHT22;10546;50.674;4.616;2023-03-12T12:51:50;13.10;99.90
20773;DHT22;10546;50.674;4.616;2023-03-12T13:00:26;12.90;99.90
20773;DHT22;10546;50.674;4.616;2023-03-12T13:02:33;13.10;99.90
20773;DHT22;10546;50.674;4.616;2023-03-12T13:05:03;13.20;99.90
20773;DHT22;10546;50.674;4.616;2023-03-12T13:07:41;13.30;99.90
20773;DHT22;10546;50.674;4.616;2023-03-12T13:13:19;13.00;99.90
20773;DHT22;10546;50.674;4.616;2023-03-12T13:15:45;13.00;99.90
20773;DHT22;10546;50.674;4.616;2023-03-12T13:18:25;12.90;99.90
20773;DHT22;10546;50.674;4.616;2023-03-12T13:28:34;12.90;99.90
20773;DHT22;10546;50.674;4.616;2023-03-12T13:33:52;13.00;99.90
20773;DHT22;10546;50.674;4.616;2023-03-12T13:36:21;13.00;99.90
20773;DHT22;10546;50.674;4.616;2023-03-12T13:41:48;13.10;99.90
20773;DHT22;10546;50.674;4.616;2023-03-12T13:49:57;13.30;99.90
20773;DHT22;10546;50.674;4.616;2023-03-12T13:52:28;13.20;99.90
20773;DHT22;10546;50.674;4.616;2023-03-12T13:55:01;13.20;99.90
20773;DHT22;10546;50.674;4.616;2023-03-12T13:57:41;13.20;99.90
20773;DHT22;10546;50.674;4.616;2023-03-12T14:00:26;13.40;99.90
20773;DHT22;10546;50.674;4.616;2023-03-12T14:03:15;13.60;99.90
20773;DHT22;10546;50.674;4.616;2023-03-12T14:17:18;13.50;99.90
20773;DHT22;10546;50.674;4.616;2023-03-12T14:20:28;13.50;99.90
20773;DHT22;10546;50.674;4.616;2023-03-12T14:22:37;13.60;99.90
20773;DHT22;10546;50.674;4.616;2023-03-12T14:25:25;13.50;99.90
20773;DHT22;10546;50.674;4.616;2023-03-12T14:27:53;13.60;99.90
20773;DHT22;10546;50.674;4.616;2023-03-12T14:30:22;13.50;99.90
20773;DHT22;10546;50.674;4.616;2023-03-12T14:32:52;13.60;99.90
20773;DHT22;10546;50.674;4.616;2023-03-12T14:35:22;13.60;99.90
20773;DHT22;10546;50.674;4.616;2023-03-12T14:38:02;13.50;99.90
20773;DHT22;10546;50.674;4.616;2023-03-12T14:40:39;13.70;99.90
20773;DHT22;10546;50.674;4.616;2023-03-12T14:43:38;13.90;99.90
20773;DHT22;10546;50.674;4.616;2023-03-12T14:46:14;13.90;99.90
20773;DHT22;10546;50.674;4.616;2023-03-12T14:48:39;13.60;99.90
20773;DHT22;10546;50.674;4.616;2023-03-12T14:51:06;13.60;99.90
20773;DHT22;10546;50.674;4.616;2023-03-12T14:53:34;13.50;99.90
20773;DHT22;10546;50.674;4.616;2023-03-12T14:56:06;13.50;99.90
20773;DHT22;10546;50.674;4.616;2023-03-12T14:58:34;13.50;99.90
20773;DHT22;10546;50.674;4.616;2023-03-12T15:01:05;13.40;99.90
20773;DHT22;10546;50.674;4.616;2023-03-12T15:03:39;13.50;99.90
20773;DHT22;10546;50.674;4.616;2023-03-12T15:06:17;13.40;99.90
20773;DHT22;10546;50.674;4.616;2023-03-12T15:08:44;13.40;99.90
20773;DHT22;10546;50.674;4.616;2023-03-12T15:11:10;13.50;99.90
20773;DHT22;10546;50.674;4.616;2023-03-12T15:13:37;13.30;99.90
20773;DHT22;10546;50.674;4.616;2023-03-12T15:16:04;13.30;99.90
20773;DHT22;10546;50.674;4.616;2023-03-12T15:18:31;13.30;99.90
20773;DHT22;10546;50.674;4.616;2023-03-12T15:20:59;13.50;99.90
20773;DHT22;10546;50.674;4.616;2023-03-12T15:23:28;13.60;99.90
20773;DHT22;10546;50.674;4.616;2023-03-12T15:26:30;13.60;99.90
20773;DHT22;10546;50.674;4.616;2023-03-12T15:29:27;13.30;99.90
20773;DHT22;10546;50.674;4.616;2023-03-12T15:31:57;13.30;99.90
20773;DHT22;10546;50.674;4.616;2023-03-12T15:34:37;13.30;99.90
20773;DHT22;10546;50.674;4.616;2023-03-12T15:37:24;13.30;99.90
20773;DHT22;10546;50.674;4.616;2023-03-12T15:39:54;13.20;99.90
20773;DHT22;10546;50.674;4.616;2023-03-12T15:42:23;13.30;99.90
20773;DHT22;10546;50.674;4.616;2023-03-12T15:47:23;13.30;99.90
20773;DHT22;10546;50.674;4.616;2023-03-12T15:49:52;13.30;99.90
20773;DHT22;10546;50.674;4.616;2023-03-12T15:57:52;13.30;99.90
20773;DHT22;10546;50.674;4.616;2023-03-12T16:00:28;13.40;99.90
20773;DHT22;10546;50.674;4.616;2023-03-12T16:03:00;13.40;99.90
20773;DHT22;10546;50.674;4.616;2023-03-12T16:05:29;13.40;99.90
20773;DHT22;10546;50.674;4.616;2023-03-12T16:07:55;13.30;99.90
20773;DHT22;10546;50.674;4.616;2023-03-12T16:10:24;13.20;99.90
20773;DHT22;10546;50.674;4.616;2023-03-12T16:12:56;13.20;99.90
20773;DHT22;10546;50.674;4.616;2023-03-12T16:15:29;13.10;99.90
20773;DHT22;10546;50.674;4.616;2023-03-12T16:17:56;13.10;99.90
20773;DHT22;10546;50.674;4.616;2023-03-12T16:20:21;13.00;99.90
20773;DHT22;10546;50.674;4.616;2023-03-12T16:22:47;13.00;99.90
20773;DHT22;10546;50.674;4.616;2023-03-12T16:25:13;12.90;99.90
20773;DHT22;10546;50.674;4.616;2023-03-12T16:27:52;12.90;99.90
20773;DHT22;10546;50.674;4.616;2023-03-12T16:30:23;12.80;99.90
20773;DHT22;10546;50.674;4.616;2023-03-12T16:32:49;12.80;99.90
20773;DHT22;10546;50.674;4.616;2023-03-12T16:35:17;12.80;99.90
20773;DHT22;10546;50.674;4.616;2023-03-12T16:37:43;12.60;99.90
20773;DHT22;10546;50.674;4.616;2023-03-12T16:40:10;12.70;99.90
20773;DHT22;10546;50.674;4.616;2023-03-12T16:42:39;12.70;99.90
20773;DHT22;10546;50.674;4.616;2023-03-12T16:45:09;12.70;99.90
20773;DHT22;10546;50.674;4.616;2023-03-12T16:47:35;12.70;99.90
20773;DHT22;10546;50.674;4.616;2023-03-12T16:50:01;12.90;99.90
20773;DHT22;10546;50.674;4.616;2023-03-12T16:52:26;12.70;99.90
20773;DHT22;10546;50.674;4.616;2023-03-12T16:54:52;12.70;99.90
20773;DHT22;10546;50.674;4.616;2023-03-12T16:57:35;12.70;99.90
20773;DHT22;10546;50.674;4.616;2023-03-12T17:00:05;12.70;99.90
20773;DHT22;10546;50.674;4.616;2023-03-12T17:02:33;12.70;99.90
20773;DHT22;10546;50.674;4.616;2023-03-12T17:05:00;12.80;99.90
20773;DHT22;10546;50.674;4.616;2023-03-12T17:07:25;12.70;99.90
20773;DHT22;10546;50.674;4.616;2023-03-12T17:09:51;12.60;99.90
20773;DHT22;10546;50.674;4.616;2023-03-12T17:12:25;12.70;99.90
20773;DHT22;10546;50.674;4.616;2023-03-12T17:14:52;12.60;99.90
20773;DHT22;10546;50.674;4.616;2023-03-12T17:17:18;12.50;99.90
20773;DHT22;10546;50.674;4.616;2023-03-12T17:19:43;12.50;99.90
20773;DHT22;10546;50.674;4.616;2023-03-12T17:22:09;12.40;99.90
20773;DHT22;10546;50.674;4.616;2023-03-12T17:24:35;12.40;99.90
20773;DHT22;10546;50.674;4.616;2023-03-12T17:27:00;12.40;99.90
20773;DHT22;10546;50.674;4.616;2023-03-12T17:29:26;12.40;99.90
20773;DHT22;10546;50.674;4.616;2023-03-12T17:31:51;12.40;99.90
20773;DHT22;10546;50.674;4.616;2023-03-12T17:34:17;12.40;99.90
20773;DHT22;10546;50.674;4.616;2023-03-12T17:36:43;12.30;99.90
20773;DHT22;10546;50.674;4.616;2023-03-12T17:39:08;12.30;99.90
20773;DHT22;10546;50.674;4.616;2023-03-12T17:41:34;12.30;99.90
20773;DHT22;10546;50.674;4.616;2023-03-12T17:44:00;12.30;99.90
20773;DHT22;10546;50.674;4.616;2023-03-12T17:46:28;12.30;99.90
20773;DHT22;10546;50.674;4.616;2023-03-12T17:48:54;12.30;99.90
20773;DHT22;10546;50.674;4.616;2023-03-12T17:51:20;12.20;99.90
20773;DHT22;10546;50.674;4.616;2023-03-12T17:53:46;12.30;99.90
20773;DHT22;10546;50.674;4.616;2023-03-12T17:56:12;12.20;99.90
20773;DHT22;10546;50.674;4.616;2023-03-12T17:58:39;12.20;99.90
20773;DHT22;10546;50.674;4.616;2023-03-12T18:01:05;12.20;99.90
20773;DHT22;10546;50.674;4.616;2023-03-12T18:03:31;12.10;99.90
20773;DHT22;10546;50.674;4.616;2023-03-12T18:05:56;12.20;99.90
20773;DHT22;10546;50.674;4.616;2023-03-12T18:08:22;12.10;99.90
20773;DHT22;10546;50.674;4.616;2023-03-12T18:10:48;12.10;99.90
20773;DHT22;10546;50.674;4.616;2023-03-12T18:13:14;12.30;99.90
20773;DHT22;10546;50.674;4.616;2023-03-12T18:15:39;12.10;99.90
20773;DHT22;10546;50.674;4.616;2023-03-12T18:18:05;12.00;99.90
20773;DHT22;10546;50.674;4.616;2023-03-12T18:20:31;12.00;99.90
20773;DHT22;10546;50.674;4.616;2023-03-12T18:22:57;11.90;99.90
20773;DHT22;10546;50.674;4.616;2023-03-12T18:25:23;12.00;99.90
20773;DHT22;10546;50.674;4.616;2023-03-12T18:27:48;11.90;99.90
20773;DHT22;10546;50.674;4.616;2023-03-12T18:30:14;11.90;99.90
20773;DHT22;10546;50.674;4.616;2023-03-12T18:32:40;12.00;99.90
20773;DHT22;10546;50.674;4.616;2023-03-12T18:35:06;12.00;99.90
20773;DHT22;10546;50.674;4.616;2023-03-12T18:37:32;11.90;99.90
20773;DHT22;10546;50.674;4.616;2023-03-12T18:39:58;11.90;99.90
20773;DHT22;10546;50.674;4.616;2023-03-12T18:42:24;11.90;99.90
20773;DHT22;10546;50.674;4.616;2023-03-12T18:44:49;11.90;99.90
20773;DHT22;10546;50.674;4.616;2023-03-12T18:47:16;11.90;99.90
20773;DHT22;10546;50.674;4.616;2023-03-12T18:49:42;11.90;99.90
20773;DHT22;10546;50.674;4.616;2023-03-12T18:52:08;12.00;99.90
20773;DHT22;10546;50.674;4.616;2023-03-12T18:54:33;12.00;99.90
20773;DHT22;10546;50.674;4.616;2023-03-12T18:56:59;11.90;99.90
20773;DHT22;10546;50.674;4.616;2023-03-12T18:59:25;11.90;99.90
20773;DHT22;10546;50.674;4.616;2023-03-12T19:01:51;11.90;99.90
20773;DHT22;10546;50.674;4.616;2023-03-12T19:04:17;11.90;99.90
20773;DHT22;10546;50.674;4.616;2023-03-12T19:06:44;11.80;99.90
20773;DHT22;10546;50.674;4.616;2023-03-12T19:09:10;11.90;99.90
20773;DHT22;10546;50.674;4.616;2023-03-12T19:11:36;11.80;99.90
20773;DHT22;10546;50.674;4.616;2023-03-12T19:14:02;11.80;99.90
20773;DHT22;10546;50.674;4.616;2023-03-12T19:16:28;11.80;99.90
20773;DHT22;10546;50.674;4.616;2023-03-12T19:18:54;11.70;99.90
20773;DHT22;10546;50.674;4.616;2023-03-12T19:21:20;11.80;99.90
20773;DHT22;10546;50.674;4.616;2023-03-12T19:23:46;11.80;99.90
20773;DHT22;10546;50.674;4.616;2023-03-12T19:26:12;11.70;99.90
20773;DHT22;10546;50.674;4.616;2023-03-12T19:28:39;11.70;99.90
20773;DHT22;10546;50.674;4.616;2023-03-12T19:31:07;11.60;99.90
20773;DHT22;10546;50.674;4.616;2023-03-12T19:33:34;11.70;99.90
20773;DHT22;10546;50.674;4.616;2023-03-12T19:35:59;11.60;99.90
20773;DHT22;10546;50.674;4.616;2023-03-12T19:38:25;11.70;99.90
20773;DHT22;10546;50.674;4.616;2023-03-12T19:40:53;11.70;99.90
20773;DHT22;10546;50.674;4.616;2023-03-12T19:43:19;11.70;99.90
20773;DHT22;10546;50.674;4.616;2023-03-12T19:45:45;11.60;99.90
20773;DHT22;10546;50.674;4.616;2023-03-12T19:48:12;11.60;99.90
20773;DHT22;10546;50.674;4.616;2023-03-12T19:50:38;11.70;99.90
20773;DHT22;10546;50.674;4.616;2023-03-12T19:53:04;11.60;99.90
20773;DHT22;10546;50.674;4.616;2023-03-12T19:55:30;11.70;99.90
20773;DHT22;10546;50.674;4.616;2023-03-12T19:57:55;11.60;99.90
20773;DHT22;10546;50.674;4.616;2023-03-12T20:00:21;11.60;99.90
20773;DHT22;10546;50.674;4.616;2023-03-12T20:02:47;11.50;99.90
20773;DHT22;10546;50.674;4.616;2023-03-12T20:05:13;11.50;99.90
20773;DHT22;10546;50.674;4.616;2023-03-12T20:07:38;11.40;99.90
20773;DHT22;10546;50.674;4.616;2023-03-12T20:10:07;11.50;99.90
20773;DHT22;10546;50.674;4.616;2023-03-12T20:12:35;11.40;99.90
20773;DHT22;10546;50.674;4.616;2023-03-12T20:15:01;11.40;99.90
20773;DHT22;10546;50.674;4.616;2023-03-12T20:17:26;11.40;99.90
20773;DHT22;10546;50.674;4.616;2023-03-12T20:19:52;11.40;99.90
20773;DHT22;10546;50.674;4.616;2023-03-12T20:22:20;11.40;99.90
20773;DHT22;10546;50.674;4.616;2023-03-12T20:24:46;11.40;99.90
20773;DHT22;10546;50.674;4.616;2023-03-12T20:27:12;11.30;99.90
20773;DHT22;10546;50.674;4.616;2023-03-12T20:29:37;11.30;99.90
20773;DHT22;10546;50.674;4.616;2023-03-12T20:32:03;11.30;99.90
20773;DHT22;10546;50.674;4.616;2023-03-12T20:34:29;11.20;99.90
20773;DHT22;10546;50.674;4.616;2023-03-12T20:36:55;11.30;99.90
20773;DHT22;10546;50.674;4.616;2023-03-12T20:39:21;11.30;99.90
20773;DHT22;10546;50.674;4.616;2023-03-12T20:41:48;11.20;99.90
20773;DHT22;10546;50.674;4.616;2023-03-12T20:44:14;11.20;99.90
20773;DHT22;10546;50.674;4.616;2023-03-12T20:46:39;11.20;99.90
20773;DHT22;10546;50.674;4.616;2023-03-12T20:49:05;11.20;99.90
20773;DHT22;10546;50.674;4.616;2023-03-12T20:51:30;11.20;99.90
20773;DHT22;10546;50.674;4.616;2023-03-12T20:53:56;11.20;99.90
20773;DHT22;10546;50.674;4.616;2023-03-12T20:56:22;11.10;99.90
20773;DHT22;10546;50.674;4.616;2023-03-12T20:58:47;11.20;99.90
20773;DHT22;10546;50.674;4.616;2023-03-12T21:01:13;11.20;99.90
20773;DHT22;10546;50.674;4.616;2023-03-12T21:03:38;11.20;99.90
20773;DHT22;10546;50.674;4.616;2023-03-12T21:06:05;11.10;99.90
20773;DHT22;10546;50.674;4.616;2023-03-12T21:08:31;11.20;99.90
20773;DHT22;10546;50.674;4.616;2023-03-12T21:10:57;11.20;99.90
20773;DHT22;10546;50.674;4.616;2023-03-12T21:13:23;11.20;99.90
20773;DHT22;10546;50.674;4.616;2023-03-12T21:15:49;11.20;99.90
20773;DHT22;10546;50.674;4.616;2023-03-12T21:18:15;11.20;99.90
20773;DHT22;10546;50.674;4.616;2023-03-12T21:20:41;11.20;99.90
20773;DHT22;10546;50.674;4.616;2023-03-12T21:23:08;11.30;99.90
20773;DHT22;10546;50.674;4.616;2023-03-12T21:25:36;11.40;99.90
20773;DHT22;10546;50.674;4.616;2023-03-12T21:28:03;11.40;99.90
20773;DHT22;10546;50.674;4.616;2023-03-12T21:30:29;11.40;99.90
20773;DHT22;10546;50.674;4.616;2023-03-12T21:32:55;11.40;99.90
20773;DHT22;10546;50.674;4.616;2023-03-12T21:35:20;11.40;99.90
20773;DHT22;10546;50.674;4.616;2023-03-12T21:37:46;11.40;99.90
20773;DHT22;10546;50.674;4.616;2023-03-12T21:40:13;11.50;99.90
20773;DHT22;10546;50.674;4.616;2023-03-12T21:42:38;11.40;99.90
20773;DHT22;10546;50.674;4.616;2023-03-12T21:45:05;11.50;99.90
20773;DHT22;10546;50.674;4.616;2023-03-12T21:47:31;11.50;99.90
20773;DHT22;10546;50.674;4.616;2023-03-12T21:49:57;11.50;99.90
20773;DHT22;10546;50.674;4.616;2023-03-12T21:52:22;11.50;99.90
20773;DHT22;10546;50.674;4.616;2023-03-12T21:54:49;11.50;99.90
20773;DHT22;10546;50.674;4.616;2023-03-12T21:57:15;11.60;99.90
20773;DHT22;10546;50.674;4.616;2023-03-12T21:59:40;11.60;99.90
20773;DHT22;10546;50.674;4.616;2023-03-12T22:02:06;11.60;99.90
20773;DHT22;10546;50.674;4.616;2023-03-12T22:04:32;11.60;99.90
20773;DHT22;10546;50.674;4.616;2023-03-12T22:06:57;11.60;99.90
20773;DHT22;10546;50.674;4.616;2023-03-12T22:09:23;11.70;99.90
20773;DHT22;10546;50.674;4.616;2023-03-12T22:11:49;11.60;99.90
20773;DHT22;10546;50.674;4.616;2023-03-12T22:14:14;11.60;99.90
20773;DHT22;10546;50.674;4.616;2023-03-12T22:16:40;11.60;99.90
20773;DHT22;10546;50.674;4.616;2023-03-12T22:19:05;11.50;99.90
20773;DHT22;10546;50.674;4.616;2023-03-12T22:21:32;11.60;99.90
20773;DHT22;10546;50.674;4.616;2023-03-12T22:23:59;11.60;99.90
20773;DHT22;10546;50.674;4.616;2023-03-12T22:26:25;11.60;99.90
20773;DHT22;10546;50.674;4.616;2023-03-12T22:28:56;11.70;99.90
20773;DHT22;10546;50.674;4.616;2023-03-12T22:31:24;11.80;99.90
20773;DHT22;10546;50.674;4.616;2023-03-12T22:33:50;11.70;99.90
20773;DHT22;10546;50.674;4.616;2023-03-12T22:36:17;11.70;99.90
20773;DHT22;10546;50.674;4.616;2023-03-12T22:38:43;11.60;99.90
20773;DHT22;10546;50.674;4.616;2023-03-12T22:41:22;11.60;99.90
20773;DHT22;10546;50.674;4.616;2023-03-12T22:43:50;11.60;99.90
20773;DHT22;10546;50.674;4.616;2023-03-12T22:46:17;11.70;99.90
20773;DHT22;10546;50.674;4.616;2023-03-12T22:48:44;11.60;99.90
20773;DHT22;10546;50.674;4.616;2023-03-12T22:51:11;11.50;99.90
20773;DHT22;10546;50.674;4.616;2023-03-12T22:53:36;11.50;99.90
20773;DHT22;10546;50.674;4.616;2023-03-12T22:56:05;11.60;99.90
20773;DHT22;10546;50.674;4.616;2023-03-12T22:58:32;11.50;99.90
20773;DHT22;10546;50.674;4.616;2023-03-12T23:01:00;11.50;99.90
20773;DHT22;10546;50.674;4.616;2023-03-12T23:03:28;11.50;99.90
20773;DHT22;10546;50.674;4.616;2023-03-12T23:05:55;11.50;99.90
20773;DHT22;10546;50.674;4.616;2023-03-12T23:08:21;11.40;99.90
20773;DHT22;10546;50.674;4.616;2023-03-12T23:10:59;11.40;99.90
20773;DHT22;10546;50.674;4.616;2023-03-12T23:13:28;11.30;99.90
20773;DHT22;10546;50.674;4.616;2023-03-12T23:16:10;11.30;99.90
20773;DHT22;10546;50.674;4.616;2023-03-12T23:18:40;11.30;99.90
20773;DHT22;10546;50.674;4.616;2023-03-12T23:21:10;11.20;99.90
20773;DHT22;10546;50.674;4.616;2023-03-12T23:23:38;11.30;99.90
20773;DHT22;10546;50.674;4.616;2023-03-12T23:26:09;11.30;99.90
20773;DHT22;10546;50.674;4.616;2023-03-12T23:28:37;11.30;99.90
20773;DHT22;10546;50.674;4.616;2023-03-12T23:31:06;11.10;99.90
20773;DHT22;10546;50.674;4.616;2023-03-12T23:33:32;11.20;99.90
20773;DHT22;10546;50.674;4.616;2023-03-12T23:36:07;11.10;99.90
20773;DHT22;10546;50.674;4.616;2023-03-12T23:38:34;11.00;99.90
20773;DHT22;10546;50.674;4.616;2023-03-12T23:41:09;11.00;99.90
20773;DHT22;10546;50.674;4.616;2023-03-12T23:43:35;11.00;99.90
20773;DHT22;10546;50.674;4.616;2023-03-12T23:46:02;10.90;99.90
20773;DHT22;10546;50.674;4.616;2023-03-12T23:48:29;11.00;99.90
20773;DHT22;10546;50.674;4.616;2023-03-12T23:51:07;10.90;99.90
20773;DHT22;10546;50.674;4.616;2023-03-12T23:53:33;10.90;99.90
20773;DHT22;10546;50.674;4.616;2023-03-12T23:56:00;11.00;99.90
20773;DHT22;10546;50.674;4.616;2023-03-12T23:58:27;10.90;99.90
